Time;durP1;ratioP1;P1;durP2;ratioP2;P2;SDS_P1;SDS_P2;PMS_P1;PMS_P2;Temp;Humidity;BMP_temperature;BMP_pressure;BME280_temperature;BME280_humidity;BME280_pressure;Samples;Min_cycle;Max_cycle;Signal;HPM_P1;HPM_P2
2022/10/05 00:02:04;;;;;;;9.78;3.80;;;;;;;6.50;100.00;100488.79;1740508;82;21189;-77
2022/10/05 00:05:08;;;;;;;9.35;3.30;;;;;;;6.49;100.00;100489.26;1740439;82;21229;-78
2022/10/05 00:08:25;;;;;;;4.97;2.95;;;;;;;6.50;100.00;100492.86;1732450;82;21185;-78
2022/10/05 00:11:32;;;;;;;7.42;3.95;;;;;;;6.57;100.00;100495.34;1739922;82;21264;-77
2022/10/05 00:14:41;;;;;;;7.90;3.55;;;;;;;6.51;100.00;100495.93;1739284;82;21189;-78
2022/10/05 00:17:46;;;;;;;9.10;3.45;;;;;;;6.46;100.00;100496.88;1732509;82;21236;-77
2022/10/05 00:20:53;;;;;;;5.30;3.35;;;;;;;6.44;100.00;100500.22;1714068;82;21173;-77
2022/10/05 00:23:58;;;;;;;7.22;3.12;;;;;;;6.41;100.00;100498.66;1739902;82;21248;-78
2022/10/05 00:27:05;;;;;;;6.33;3.02;;;;;;;6.35;100.00;100506.02;1740391;82;21271;-78
2022/10/05 00:30:24;;;;;;;7.47;3.65;;;;;;;6.32;100.00;100509.04;1740470;82;21296;-78
2022/10/05 00:33:30;;;;;;;7.55;3.95;;;;;;;6.27;100.00;100501.31;1740253;82;21775;-78
2022/10/05 00:36:37;;;;;;;12.18;4.35;;;;;;;6.19;100.00;100510.68;1739118;82;21731;-78
2022/10/05 00:39:45;;;;;;;10.08;3.65;;;;;;;6.17;100.00;100507.27;1739210;82;21177;-78
2022/10/05 00:43:24;;;;;;;7.22;3.30;;;;;;;6.14;100.00;100512.97;1740004;82;21814;-78
2022/10/05 00:46:51;;;;;;;6.37;3.77;;;;;;;6.10;100.00;100503.39;1740572;82;21358;-78
2022/10/05 00:50:48;;;;;;;5.37;3.45;;;;;;;6.11;100.00;100503.73;1740604;82;21178;-78
2022/10/05 00:54:17;;;;;;;8.98;5.17;;;;;;;6.15;100.00;100510.60;1731402;82;21185;-78
2022/10/05 00:57:42;;;;;;;10.95;4.00;;;;;;;6.20;100.00;100512.39;1740362;82;21334;-78
2022/10/05 01:00:56;;;;;;;8.73;4.22;;;;;;;6.28;100.00;100520.69;1736435;81;21205;-78
2022/10/05 01:04:15;;;;;;;14.03;4.00;;;;;;;6.32;100.00;100526.70;1739156;82;21291;-78
2022/10/05 01:07:44;;;;;;;8.75;4.95;;;;;;;6.35;100.00;100529.99;1739135;82;21236;-78
2022/10/05 01:11:00;;;;;;;6.95;4.08;;;;;;;6.37;100.00;100535.27;1742389;82;21197;-77
2022/10/05 01:14:15;;;;;;;10.55;4.35;;;;;;;6.36;100.00;100537.13;1752624;82;21264;-78
2022/10/05 01:17:48;;;;;;;10.30;4.97;;;;;;;6.38;100.00;100536.48;1753750;82;21722;-78
2022/10/05 01:21:28;;;;;;;9.30;4.47;;;;;;;6.40;100.00;100549.44;1753690;82;21747;-77
2022/10/05 01:24:38;;;;;;;8.05;4.90;;;;;;;6.47;100.00;100542.05;1752485;81;21271;-78
2022/10/05 01:28:06;;;;;;;10.98;4.62;;;;;;;6.47;100.00;100548.84;1753784;82;21766;-77
2022/10/05 01:31:18;;;;;;;14.93;4.58;;;;;;;6.47;100.00;100550.20;1753692;82;21747;-78
2022/10/05 01:34:52;;;;;;;8.23;3.95;;;;;;;6.47;100.00;100550.20;1753470;82;21235;-77
2022/10/05 01:38:34;;;;;;;8.00;4.90;;;;;;;6.47;100.00;100557.00;1753671;82;21193;-77
2022/10/05 01:41:47;;;;;;;9.23;4.50;;;;;;;6.46;100.00;100562.09;1753621;82;21192;-78
2022/10/05 01:45:22;;;;;;;9.05;4.35;;;;;;;6.43;100.00;100562.36;1748574;82;21224;-77
2022/10/05 01:49:03;;;;;;;8.23;4.58;;;;;;;6.39;100.00;100564.00;1753686;82;21188;-78
2022/10/05 01:52:28;;;;;;;11.38;4.80;;;;;;;6.34;100.00;100564.08;1752480;82;21184;-78
2022/10/05 01:55:57;;;;;;;18.37;4.47;;;;;;;6.35;100.00;100568.03;1752755;82;21244;-78
2022/10/05 01:59:24;;;;;;;10.32;4.15;;;;;;;6.29;100.00;100567.22;1753101;82;21212;-78
2022/10/05 02:02:30;;;;;;;11.50;4.80;;;;;;;6.24;100.00;100569.51;1753797;82;21224;-78
2022/10/05 02:05:43;;;;;;;8.45;4.17;;;;;;;6.19;100.00;100582.66;1752790;82;21204;-78
2022/10/05 02:09:33;;;;;;;9.35;4.87;;;;;;;6.16;100.00;100581.57;1753798;82;21189;-78
2022/10/05 02:12:44;;;;;;;11.03;4.53;;;;;;;6.15;100.00;100587.51;1752686;82;21335;-78
2022/10/05 02:15:54;;;;;;;7.47;4.47;;;;;;;6.18;100.00;100588.24;1752746;82;21763;-78
2022/10/05 02:19:31;;;;;;;6.83;3.60;;;;;;;6.18;100.00;100590.95;1753908;82;21182;-78
2022/10/05 02:22:46;;;;;;;12.25;5.00;;;;;;;6.16;100.00;100589.72;1753729;82;21180;-78
2022/10/05 02:25:53;;;;;;;9.43;5.35;;;;;;;6.12;100.00;100599.17;1752794;82;21208;-78
2022/10/05 02:29:22;;;;;;;10.35;4.30;;;;;;;6.08;100.00;100597.73;1753517;82;21219;-78
2022/10/05 02:32:32;;;;;;;8.40;4.30;;;;;;;6.02;100.00;100607.78;1691987;85;21763;-77
2022/10/05 02:35:38;;;;;;;8.75;4.42;;;;;;;5.94;100.00;100602.21;1691182;85;21926;-78
2022/10/05 02:38:58;;;;;;;10.70;4.87;;;;;;;5.81;100.00;100607.34;1691771;85;21177;-78
2022/10/05 02:42:32;;;;;;;8.93;4.42;;;;;;;5.75;100.00;100616.05;1691946;85;21308;-78
2022/10/05 02:46:05;;;;;;;7.58;4.47;;;;;;;5.76;100.00;100619.13;1718157;83;21221;-77
2022/10/05 02:49:18;;;;;;;14.63;5.00;;;;;;;5.75;100.00;100625.55;1719414;82;21213;-78
2022/10/05 02:52:33;;;;;;;8.25;5.10;;;;;;;5.76;100.00;100626.41;1720663;83;21278;-78
2022/10/05 02:56:06;;;;;;;9.28;4.35;;;;;;;5.74;100.00;100627.03;1719716;83;21970;-77
2022/10/05 02:59:22;;;;;;;6.67;4.92;;;;;;;5.71;100.00;100622.75;1720230;83;21177;-77
2022/10/05 03:02:50;;;;;;;9.58;5.42;;;;;;;5.69;100.00;100629.30;1720453;83;21185;-78
2022/10/05 03:06:10;;;;;;;8.48;4.42;;;;;;;5.61;100.00;100634.07;1719406;83;21245;-77
2022/10/05 03:09:17;;;;;;;12.55;5.37;;;;;;;5.57;100.00;100639.41;1718826;83;21317;-77
2022/10/05 03:12:36;;;;;;;7.97;4.60;;;;;;;5.53;100.00;100643.38;1720401;83;21185;-78
2022/10/05 03:16:07;;;;;;;15.18;5.42;;;;;;;5.52;100.00;100648.45;1698737;83;21764;-78
2022/10/05 03:19:37;;;;;;;6.28;4.22;;;;;;;5.51;100.00;100658.45;1720833;83;21193;-77
2022/10/05 03:23:05;;;;;;;9.95;5.45;;;;;;;5.45;100.00;100663.54;1720868;83;21173;-78
2022/10/05 03:26:26;;;;;;;9.95;5.50;;;;;;;5.41;100.00;100664.80;1719943;83;21213;-77
2022/10/05 03:29:51;;;;;;;13.10;5.62;;;;;;;5.37;100.00;100665.09;1719229;83;21206;-78
2022/10/05 03:33:35;;;;;;;8.25;5.15;;;;;;;5.36;100.00;100662.02;1713900;82;21234;-78
2022/10/05 03:37:01;;;;;;;8.05;5.78;;;;;;;5.35;100.00;100660.28;1701759;84;21761;-77
2022/10/05 03:40:50;;;;;;;7.12;5.28;;;;;;;5.35;100.00;100664.84;1715447;83;21183;-77
2022/10/05 03:44:31;;;;;;;17.35;5.87;;;;;;;5.34;100.00;100672.62;1702922;84;21274;-77
2022/10/05 03:48:00;;;;;;;13.65;6.03;;;;;;;5.39;100.00;100683.94;1715379;83;21371;-78
2022/10/05 03:51:37;;;;;;;8.70;6.22;;;;;;;5.38;100.00;100698.00;1702632;84;21199;-78
2022/10/05 03:54:52;;;;;;;10.55;6.20;;;;;;;5.41;100.00;100691.46;1714053;83;21825;-78
2022/10/05 03:57:58;;;;;;;12.35;6.67;;;;;;;5.41;100.00;100697.36;1720202;82;21214;-77
2022/10/05 04:01:06;;;;;;;20.52;6.90;;;;;;;5.38;100.00;100702.06;1703627;84;21204;-78
2022/10/05 04:04:15;;;;;;;12.40;6.55;;;;;;;5.38;100.00;100708.84;1715669;83;21881;-77
2022/10/05 04:07:46;;;;;;;10.08;6.15;;;;;;;5.39;100.00;100709.20;1701870;84;22731;-77
2022/10/05 04:11:00;;;;;;;11.90;6.17;;;;;;;5.41;100.00;100719.95;1714143;83;21257;-77
2022/10/05 04:14:20;;;;;;;12.93;6.42;;;;;;;5.41;100.00;100727.20;1702551;84;21528;-77
2022/10/05 04:17:29;;;;;;;10.20;5.05;;;;;;;5.44;100.00;100729.66;1714183;83;21284;-77
2022/10/05 04:20:47;;;;;;;9.53;6.20;;;;;;;5.47;100.00;100725.33;1702828;84;21187;-78
2022/10/05 04:24:15;;;;;;;7.87;5.37;;;;;;;5.51;100.00;100734.42;1715374;83;21207;-78
2022/10/05 04:27:39;;;;;;;11.68;7.30;;;;;;;5.59;100.00;100737.81;1701817;84;21243;-78
2022/10/05 04:30:47;;;;;;;13.20;7.03;;;;;;;5.68;100.00;100739.72;1715308;83;21226;-78
2022/10/05 04:33:55;;;;;;;12.00;6.60;;;;;;;5.77;100.00;100740.27;1701228;83;21290;-78
2022/10/05 04:37:07;;;;;;;10.88;7.37;;;;;;;5.92;100.00;100748.09;1711476;82;21333;-78
2022/10/05 04:40:33;;;;;;;12.15;6.67;;;;;;;6.03;100.00;100749.37;1708581;84;21214;-78
2022/10/05 04:44:21;;;;;;;22.87;10.55;;;;;;;6.14;100.00;100748.77;1708671;84;21199;-78
2022/10/05 04:47:46;;;;;;;12.73;7.62;;;;;;;6.24;100.00;100747.94;1707318;84;21211;-78
2022/10/05 04:51:15;;;;;;;9.60;6.10;;;;;;;6.35;100.00;100751.89;1710424;82;21182;-78
2022/10/05 04:54:58;;;;;;;10.13;7.28;;;;;;;6.45;100.00;100753.31;1748325;82;21204;-77
2022/10/05 04:58:31;;;;;;;14.05;6.97;;;;;;;6.55;100.00;100754.19;1737883;82;21220;-78
2022/10/05 05:01:56;;;;;;;14.30;6.92;;;;;;;6.71;100.00;100757.21;1748865;82;22559;-78
2022/10/05 05:05:36;;;;;;;12.50;7.80;;;;;;;6.84;100.00;100755.09;1730322;82;22211;-78
2022/10/05 05:09:19;;;;;;;14.35;7.25;;;;;;;6.97;100.00;100751.25;1726208;83;21220;-78
2022/10/05 05:12:46;;;;;;;14.15;7.87;;;;;;;7.12;100.00;100753.89;1700828;83;21761;-78
2022/10/05 05:16:24;;;;;;;10.28;8.03;;;;;;;7.24;100.00;100750.51;1704883;83;21298;-78
2022/10/05 05:19:39;;;;;;;15.40;6.97;;;;;;;7.39;100.00;100755.39;1689651;82;21179;-78
2022/10/05 05:23:32;;;;;;;8.05;5.62;;;;;;;7.57;100.00;100755.98;1717704;82;21244;-80
2022/10/05 05:27:00;;;;;;;6.72;5.15;;;;;;;7.78;100.00;100751.72;1701899;82;21234;-79
2022/10/05 05:30:25;;;;;;;9.53;6.22;;;;;;;8.01;100.00;100764.48;1641451;84;21226;-79
2022/10/05 05:33:37;;;;;;;11.03;6.17;;;;;;;8.26;100.00;100761.08;1700908;81;21428;-80
2022/10/05 05:36:53;;;;;;;10.78;6.42;;;;;;;8.52;100.00;100764.00;1710547;82;21173;-78
2022/10/05 05:40:15;;;;;;;6.60;5.17;;;;;;;8.76;100.00;100756.61;1703374;82;21354;-78
2022/10/05 05:43:33;;;;;;;10.48;6.37;;;;;;;9.01;100.00;100759.59;1697535;82;21269;-78
2022/10/05 05:46:44;;;;;;;6.20;4.60;;;;;;;9.25;100.00;100752.13;1710566;82;21218;-79
2022/10/05 05:50:16;;;;;;;14.30;5.15;;;;;;;9.50;100.00;100751.82;1714631;82;21207;-79
2022/10/05 05:53:29;;;;;;;5.90;4.23;;;;;;;9.71;100.00;100759.17;1701248;82;21307;-78
2022/10/05 05:56:43;;;;;;;6.58;4.30;;;;;;;9.90;100.00;100761.69;1713243;82;21815;-78
2022/10/05 05:59:56;;;;;;;11.28;3.92;;;;;;;10.07;100.00;100761.77;1716217;82;21853;-78
2022/10/05 06:03:22;;;;;;;7.00;4.00;;;;;;;10.22;100.00;100757.44;1714436;82;21217;-78
2022/10/05 06:06:35;;;;;;;5.40;4.37;;;;;;;10.37;100.00;100755.82;1710578;82;21204;-78
2022/10/05 06:09:58;;;;;;;8.20;4.10;;;;;;;10.52;100.00;100763.40;1721404;82;21225;-78
2022/10/05 06:13:11;;;;;;;7.92;3.30;;;;;;;10.67;100.00;100763.11;1705964;82;21227;-78
2022/10/05 06:16:44;;;;;;;;;;;;;;;10.83;99.19;100770.02;1715875;82;21204;-77
2022/10/05 06:19:50;;;;;;;6.05;3.58;;;;;;;10.96;97.54;100774.50;1707770;82;20265;-78
2022/10/05 06:22:59;;;;;;;4.83;3.15;;;;;;;11.08;95.98;100774.17;1733506;82;21672;-79
2022/10/05 06:26:19;;;;;;;4.50;3.20;;;;;;;11.18;95.24;100777.60;1700419;82;21842;-79
2022/10/05 06:29:26;;;;;;;5.47;3.15;;;;;;;11.26;93.97;100784.47;1693290;82;21173;-78
2022/10/05 06:32:53;;;;;;;3.83;2.87;;;;;;;11.31;93.43;100784.81;1698036;82;21252;-78
2022/10/05 06:36:40;;;;;;;4.55;3.00;;;;;;;11.32;92.32;100789.26;1726909;81;21208;-78
2022/10/05 06:40:23;;;;;;;3.65;2.65;;;;;;;11.44;91.71;100782.44;1700281;82;21235;-78
2022/10/05 06:43:48;;;;;;;3.60;2.60;;;;;;;11.58;90.76;100782.27;1706895;83;21991;-78
2022/10/05 06:47:36;;;;;;;4.17;2.77;;;;;;;11.79;90.67;100783.09;1708356;82;21765;-77
2022/10/05 06:50:50;;;;;;;4.92;2.15;;;;;;;11.96;89.39;100791.69;1719309;82;21113;-78
2022/10/05 06:54:17;;;;;;;5.80;2.58;;;;;;;12.12;88.03;100787.19;1697933;82;21536;-78
2022/10/05 06:57:59;;;;;;;9.00;2.52;;;;;;;12.25;86.58;100786.98;1723077;82;21350;-78
2022/10/05 07:01:11;;;;;;;6.03;2.37;;;;;;;12.42;87.12;100783.69;1703610;82;21868;-79
2022/10/05 07:04:35;;;;;;;3.00;2.25;;;;;;;12.62;85.81;100791.50;1710384;82;21209;-78
2022/10/05 07:07:58;;;;;;;4.58;2.47;;;;;;;12.77;85.50;100793.30;1710218;82;21841;-78
2022/10/05 07:11:34;;;;;;;3.25;2.17;;;;;;;12.95;85.08;100797.17;1702132;82;21258;-78
2022/10/05 07:15:02;;;;;;;2.72;2.08;;;;;;;13.10;83.55;100797.77;1707904;82;21742;-78
2022/10/05 07:18:24;;;;;;;3.15;2.10;;;;;;;13.26;82.99;100798.53;1695531;82;21731;-78
2022/10/05 07:21:59;;;;;;;5.10;2.13;;;;;;;13.49;81.38;100794.95;1712674;82;21218;-79
2022/10/05 07:25:20;;;;;;;2.87;2.25;;;;;;;13.69;80.93;100793.92;1688667;82;21195;-78
2022/10/05 07:28:36;;;;;;;4.17;2.12;;;;;;;13.91;80.14;100789.44;1709150;82;21278;-78
2022/10/05 07:32:05;;;;;;;3.27;1.98;;;;;;;14.11;78.36;100791.12;1706829;82;21916;-78
2022/10/05 07:39:24;;;;;;;2.70;1.95;;;;;;;14.37;76.32;100798.42;1716424;82;21280;-79
2022/10/05 07:42:49;;;;;;;3.85;1.70;;;;;;;14.43;73.30;100804.53;1713415;82;21255;-78
2022/10/05 07:46:03;;;;;;;3.75;1.62;;;;;;;14.41;73.50;100801.12;1713676;82;21250;-78
2022/10/05 07:49:22;;;;;;;2.77;1.60;;;;;;;14.50;72.82;100805.53;1712231;82;21383;-79
2022/10/05 07:52:31;;;;;;;3.47;1.50;;;;;;;14.53;72.93;100802.38;1701157;82;21225;-78
2022/10/05 07:55:42;;;;;;;5.40;1.35;;;;;;;14.59;72.40;100806.29;1706146;82;21324;-78
2022/10/05 07:59:03;;;;;;;4.80;1.80;;;;;;;14.64;71.00;100802.97;1723234;82;22474;-78
2022/10/05 08:02:18;;;;;;;6.75;1.45;;;;;;;14.67;71.77;100810.30;1708642;82;21213;-78
2022/10/05 08:05:28;;;;;;;1.80;1.40;;;;;;;14.81;72.63;100818.21;1690287;82;21942;-79
2022/10/05 08:08:56;;;;;;;1.67;1.22;;;;;;;14.89;70.37;100822.25;1696042;82;21191;-78
2022/10/05 08:12:08;;;;;;;2.98;1.80;;;;;;;14.90;70.32;100829.45;1712081;82;21781;-79
2022/10/05 08:15:31;;;;;;;7.25;1.72;;;;;;;14.87;70.09;100825.73;1704029;82;21374;-77
2022/10/05 08:22:31;;;;;;;3.33;1.60;;;;;;;14.70;69.81;100841.59;1685904;83;21213;-78
2022/10/05 08:25:43;;;;;;;3.80;1.82;;;;;;;14.57;71.06;100844.15;1703719;82;21254;-78
2022/10/05 08:28:56;;;;;;;4.33;2.02;;;;;;;14.59;72.14;100837.95;1682159;83;21235;-79
2022/10/05 08:32:07;;;;;;;5.12;2.70;;;;;;;14.62;72.34;100840.83;1679991;83;21811;-78
2022/10/05 08:35:43;;;;;;;6.28;2.05;;;;;;;14.72;72.55;100838.64;1680201;83;21250;-79
2022/10/05 08:38:50;;;;;;;3.15;2.00;;;;;;;14.77;73.12;100847.17;1678553;83;21789;-78
2022/10/05 08:42:24;;;;;;;2.17;1.92;;;;;;;14.87;73.80;100842.26;1714028;82;21218;-80
2022/10/05 08:45:44;;;;;;;3.15;2.12;;;;;;;14.92;73.58;100849.42;1701097;82;21221;-78
2022/10/05 08:49:00;;;;;;;3.55;2.52;;;;;;;14.87;74.87;100854.65;1670159;84;21175;-79
2022/10/05 08:53:02;;;;;;;6.70;2.50;;;;;;;14.91;75.88;100860.08;1703873;82;21740;-79
2022/10/05 08:56:33;;;;;;;9.30;2.37;;;;;;;14.94;76.32;100854.73;1710888;82;21245;-78
2022/10/05 09:00:17;;;;;;;2.50;1.80;;;;;;;14.93;74.76;100857.16;1704110;82;21194;-77
2022/10/05 09:03:50;;;;;;;3.60;2.42;;;;;;;14.91;74.08;100855.95;1695579;82;21182;-78
2022/10/05 09:07:22;;;;;;;7.62;1.67;;;;;;;14.92;74.70;100849.42;1701558;82;21193;-78
2022/10/05 09:10:51;;;;;;;4.33;1.47;;;;;;;14.92;72.51;100852.70;1697354;82;21697;-78
2022/10/05 09:14:21;;;;;;;2.40;1.20;;;;;;;14.93;69.95;100851.13;1693062;82;21740;-78
2022/10/05 09:17:53;;;;;;;3.65;1.40;;;;;;;14.90;67.06;100857.00;1691970;84;21202;-78
2022/10/05 09:21:29;;;;;;;2.75;1.50;;;;;;;14.81;67.83;100854.86;1707554;81;21914;-79
2022/10/05 09:24:45;;;;;;;2.87;1.60;;;;;;;14.82;69.49;100850.23;1720199;82;21334;-78
2022/10/05 09:28:05;;;;;;;2.75;2.40;;;;;;;14.89;71.11;100847.04;1718731;81;21234;-78
2022/10/05 09:31:26;;;;;;;3.67;2.20;;;;;;;15.05;73.33;100849.56;1729914;82;21256;-79
2022/10/05 09:34:46;;;;;;;9.28;2.15;;;;;;;15.21;72.54;100847.66;1704048;84;21204;-78
2022/10/05 09:38:11;;;;;;;5.05;2.30;;;;;;;15.29;70.30;100854.41;1727733;81;21216;-79
2022/10/05 09:41:47;;;;;;;7.33;2.62;;;;;;;15.33;71.60;100852.98;1719080;82;21196;-78
2022/10/05 09:45:23;;;;;;;4.95;2.58;;;;;;;15.31;70.96;100848.20;1724066;83;21233;-78
2022/10/05 09:48:53;;;;;;;5.90;3.42;;;;;;;15.31;72.34;100838.55;1631827;83;21737;-80
2022/10/05 09:52:26;;;;;;;5.37;4.10;;;;;;;15.39;72.77;100849.47;1708325;83;21329;-79
2022/10/05 09:56:04;;;;;;;10.35;3.55;;;;;;;15.51;72.18;100845.66;1722027;83;21319;-79
2022/10/05 09:59:51;;;;;;;5.12;2.80;;;;;;;15.55;74.13;100849.20;1716170;81;21194;-79
2022/10/05 10:03:32;;;;;;;7.50;2.65;;;;;;;15.66;73.48;100850.61;1715415;83;21221;-78
2022/10/05 10:07:05;;;;;;;7.60;3.27;;;;;;;15.73;71.49;100854.31;1721706;83;21190;-79
2022/10/05 10:10:43;;;;;;;7.40;3.10;;;;;;;15.78;70.71;100861.99;1704537;83;21237;-79
2022/10/05 10:14:00;;;;;;;7.97;3.10;;;;;;;15.78;69.39;100851.81;1714206;83;21205;-80
2022/10/05 10:17:15;;;;;;;4.12;2.83;;;;;;;15.82;68.65;100848.14;1709658;83;21173;-79
2022/10/05 10:20:27;;;;;;;4.20;2.80;;;;;;;15.92;67.72;100837.63;1713408;83;21234;-79
2022/10/05 10:23:49;;;;;;;4.05;2.90;;;;;;;16.02;67.04;100838.13;1699194;83;21299;-79
2022/10/05 10:27:44;;;;;;;7.00;2.58;;;;;;;16.08;66.74;100831.80;1691028;82;22219;-79
2022/10/05 10:31:38;;;;;;;2.85;1.95;;;;;;;16.04;65.65;100833.28;1720918;82;21399;-78
2022/10/05 10:35:26;;;;;;;2.65;2.15;;;;;;;15.90;65.44;100825.91;1708523;82;21206;-78
2022/10/05 10:38:39;;;;;;;4.30;2.33;;;;;;;15.69;65.19;100828.17;1732167;82;21211;-78
2022/10/05 10:41:51;;;;;;;9.28;2.05;;;;;;;15.64;65.95;100828.44;1715420;82;21277;-78
2022/10/05 10:45:36;;;;;;;4.53;2.00;;;;;;;15.65;66.12;100828.23;1715661;81;21369;-78
2022/10/05 10:49:09;;;;;;;4.75;1.72;;;;;;;15.69;64.80;100834.22;1714143;83;22089;-77
2022/10/05 10:52:21;;;;;;;7.92;2.15;;;;;;;15.68;63.56;100831.14;1713939;83;21309;-78
2022/10/05 10:56:01;;;;;;;3.80;1.70;;;;;;;15.67;62.86;100836.33;1713047;83;21253;-78
2022/10/05 10:59:36;;;;;;;5.75;2.30;;;;;;;15.65;63.13;100835.12;1722003;83;21305;-78
2022/10/05 11:03:16;;;;;;;3.17;1.92;;;;;;;15.72;63.84;100826.94;1716682;83;21190;-78
2022/10/05 11:06:44;;;;;;;5.40;2.27;;;;;;;15.87;65.30;100827.70;1714726;83;22636;-77
2022/10/05 11:10:10;;;;;;;7.62;2.30;;;;;;;16.03;65.69;100832.92;1712771;83;21208;-78
2022/10/05 11:13:41;;;;;;;8.58;2.12;;;;;;;16.06;64.77;100834.45;1713571;83;21299;-77
2022/10/05 11:17:11;;;;;;;8.47;2.03;;;;;;;15.98;63.19;100840.95;1717793;83;21276;-77
2022/10/05 11:20:34;;;;;;;9.28;2.00;;;;;;;15.87;63.38;100844.27;1705182;83;21213;-78
2022/10/05 11:24:04;;;;;;;2.08;1.67;;;;;;;15.70;62.78;100842.28;1696352;82;21780;-78
2022/10/05 11:27:27;;;;;;;5.15;1.60;;;;;;;15.50;62.78;100835.16;1695877;84;21196;-78
2022/10/05 11:31:13;;;;;;;6.67;1.98;;;;;;;15.37;64.11;100841.90;1701064;84;21149;-78
2022/10/05 11:34:42;;;;;;;3.00;2.10;;;;;;;15.31;65.17;100835.80;1681393;84;21145;-78
2022/10/05 11:38:16;;;;;;;3.98;2.00;;;;;;;15.28;64.71;100834.80;1677185;84;21217;-79
2022/10/05 11:41:45;;;;;;;8.33;2.20;;;;;;;15.23;63.84;100831.24;1677105;84;21271;-77
2022/10/05 11:45:35;;;;;;;5.80;1.60;;;;;;;15.25;63.80;100833.30;1703145;84;21220;-78
2022/10/05 11:49:05;;;;;;;2.90;1.70;;;;;;;15.32;61.60;100825.09;1692325;84;21246;-78
2022/10/05 11:52:21;;;;;;;3.58;1.52;;;;;;;15.40;60.58;100824.98;1695790;83;21237;-78
2022/10/05 11:56:03;;;;;;;5.92;1.92;;;;;;;15.49;61.00;100834.84;1690560;84;21419;-78
2022/10/05 11:59:19;;;;;;;5.47;1.50;;;;;;;15.56;62.10;100837.13;1707639;82;22068;-78
2022/10/05 12:02:44;;;;;;;2.95;1.67;;;;;;;15.65;63.41;100839.79;1667445;85;21592;-77
2022/10/05 12:06:01;;;;;;;4.95;1.82;;;;;;;15.75;57.95;100841.69;1677586;85;21218;-78
2022/10/05 12:10:12;;;;;;;4.28;1.75;;;;;;;15.75;58.79;100845.30;1665542;85;21228;-78
2022/10/05 12:12:58;;;;;;;2.92;1.57;;;;;;;15.74;59.47;100844.98;1694316;83;21185;-77
2022/10/05 12:16:18;;;;;;;4.47;1.60;;;;;;;15.71;58.18;100852.25;1674562;85;21306;-78
2022/10/05 12:19:36;;;;;;;7.80;1.80;;;;;;;15.68;57.52;100858.19;1679397;84;21201;-78
2022/10/05 12:22:46;;;;;;;3.33;1.85;;;;;;;15.73;58.21;100852.08;1676856;85;21209;-78
2022/10/05 12:26:09;;;;;;;5.33;1.50;;;;;;;15.78;58.63;100845.45;1695393;82;21287;-77
2022/10/05 12:29:22;;;;;;;6.85;2.12;;;;;;;15.83;58.80;100841.56;1726272;83;21189;-78
2022/10/05 12:32:47;;;;;;;3.90;1.62;;;;;;;15.81;58.63;100850.58;1691213;84;21279;-77
2022/10/05 12:36:16;;;;;;;3.72;1.80;;;;;;;15.70;58.16;100855.22;1677379;85;21538;-78
2022/10/05 12:39:40;;;;;;;4.17;1.77;;;;;;;15.56;57.84;100852.81;1683811;85;21275;-77
2022/10/05 12:43:20;;;;;;;4.20;1.77;;;;;;;15.44;58.12;100862.14;1669840;86;21224;-77
2022/10/05 12:46:59;;;;;;;4.47;1.85;;;;;;;15.41;58.73;100861.14;1683805;85;21208;-78
2022/10/05 12:50:14;;;;;;;2.62;1.70;;;;;;;15.43;58.95;100847.15;1669649;86;21216;-78
2022/10/05 12:53:37;;;;;;;2.27;1.40;;;;;;;15.50;58.05;100858.59;1682288;85;21886;-78
2022/10/05 12:56:59;;;;;;;4.22;1.70;;;;;;;15.57;55.92;100854.52;1683139;85;21214;-78
2022/10/05 13:00:17;;;;;;;9.28;1.65;;;;;;;15.58;56.18;100852.11;1669206;86;21290;-78
2022/10/05 13:03:30;;;;;;;4.97;1.60;;;;;;;15.59;56.68;100860.70;1683339;84;21213;-78
2022/10/05 13:06:56;;;;;;;4.20;1.70;;;;;;;15.60;56.50;100859.65;1685119;85;21178;-78
2022/10/05 13:10:27;;;;;;;2.40;1.50;;;;;;;15.60;57.54;100863.26;1684848;85;21213;-78
2022/10/05 13:13:50;;;;;;;6.10;1.65;;;;;;;15.57;56.92;100859.53;1710368;84;21193;-78
2022/10/05 13:17:14;;;;;;;6.42;1.50;;;;;;;15.56;57.71;100872.97;1712687;83;21280;-78
2022/10/05 13:20:30;;;;;;;6.37;1.50;;;;;;;15.51;56.30;100876.84;1685391;85;21508;-78
2022/10/05 13:23:42;;;;;;;7.92;1.50;;;;;;;15.46;56.39;100879.32;1671511;86;21798;-78
2022/10/05 13:26:52;;;;;;;2.70;1.30;;;;;;;15.41;54.91;100881.81;1714136;82;21263;-78
2022/10/05 13:30:11;;;;;;;3.55;1.65;;;;;;;15.33;54.46;100880.54;1715392;83;21203;-78
2022/10/05 13:33:22;;;;;;;;;;;;;;;15.23;54.17;100882.23;1720212;83;21245;-78
2022/10/05 13:36:44;;;;;;;4.77;1.23;;;;;;;15.15;54.41;100887.87;1714901;83;20208;-78
2022/10/05 13:40:45;;;;;;;3.22;1.40;;;;;;;15.05;55.85;100890.89;1681109;82;21268;-77
2022/10/05 13:44:21;;;;;;;1.90;1.15;;;;;;;14.98;56.07;100902.36;1719810;83;21232;-77
2022/10/05 13:47:40;;;;;;;2.33;1.40;;;;;;;14.87;56.85;100897.83;1721378;83;21184;-77
2022/10/05 13:51:00;;;;;;;2.77;1.42;;;;;;;14.72;56.56;100902.81;1721139;83;21357;-77
2022/10/05 13:54:53;;;;;;;5.20;1.70;;;;;;;14.60;57.23;100918.63;1719091;82;21763;-78
2022/10/05 13:58:21;;;;;;;2.70;1.55;;;;;;;14.47;57.10;100913.73;1721394;83;21170;-78
2022/10/05 14:01:55;;;;;;;2.95;1.50;;;;;;;14.35;57.77;100911.97;1720803;83;21249;-78
2022/10/05 14:05:09;;;;;;;5.03;1.57;;;;;;;14.26;57.68;100915.84;1703290;84;21216;-78
2022/10/05 14:08:24;;;;;;;4.12;1.27;;;;;;;14.16;58.29;100920.71;1703695;84;21197;-77
2022/10/05 14:11:41;;;;;;;7.20;1.50;;;;;;;14.07;59.14;100921.33;1702992;84;21217;-77
2022/10/05 14:14:56;;;;;;;1.70;1.30;;;;;;;14.00;59.94;100930.81;1702965;84;21273;-77
2022/10/05 14:18:01;;;;;;;2.60;1.30;;;;;;;13.95;60.94;100930.52;1701247;83;21237;-77
2022/10/05 14:21:23;;;;;;;7.55;1.60;;;;;;;13.88;61.71;100940.55;1703387;84;21209;-77
2022/10/05 14:24:37;;;;;;;1.92;1.30;;;;;;;13.81;62.47;100944.53;1708912;83;21205;-77
2022/10/05 14:27:37;;;;;;;2.25;1.50;;;;;;;13.75;62.81;100943.89;1694144;84;21207;-77
2022/10/05 14:30:43;;;;;;;5.87;1.85;;;;;;;13.70;62.85;100945.48;1664323;86;21211;-78
2022/10/05 14:33:51;;;;;;;2.83;1.27;;;;;;;13.67;62.84;100944.45;1663826;86;21219;-78
2022/10/05 14:37:03;;;;;;;2.65;1.12;;;;;;;13.62;62.87;100949.64;1664369;86;21329;-77
2022/10/05 14:40:14;;;;;;;2.60;1.47;;;;;;;13.58;62.92;100944.16;1655869;86;21243;-78
2022/10/05 14:43:26;;;;;;;5.08;1.60;;;;;;;13.56;62.96;100948.48;1683974;84;21253;-78
2022/10/05 14:46:31;;;;;;;3.08;1.65;;;;;;;13.51;63.11;100947.64;1665480;86;21261;-78
2022/10/05 14:49:39;;;;;;;2.33;1.47;;;;;;;13.49;63.30;100957.94;1665380;86;21221;-77
2022/10/05 14:52:49;;;;;;;2.58;1.30;;;;;;;13.46;63.71;100955.58;1665857;86;21256;-78
2022/10/05 14:56:00;;;;;;;2.35;1.47;;;;;;;13.40;64.07;100963.66;1665835;86;21225;-78
2022/10/05 14:59:22;;;;;;;3.20;1.60;;;;;;;13.33;64.45;100965.42;1665905;86;21217;-78
2022/10/05 15:03:15;;;;;;;4.22;1.80;;;;;;;13.28;65.05;100972.83;1665819;86;21747;-77
2022/10/05 15:06:26;;;;;;;3.40;2.05;;;;;;;13.22;65.49;100969.39;1665965;86;21253;-77
2022/10/05 15:10:01;;;;;;;4.22;1.55;;;;;;;13.09;66.13;100977.33;1662329;86;22626;-78
2022/10/05 15:13:23;;;;;;;3.58;1.77;;;;;;;13.01;66.59;100980.95;1638681;86;21233;-78
2022/10/05 15:16:40;;;;;;;3.37;1.82;;;;;;;12.91;67.25;100990.75;1655657;86;21217;-78
2022/10/05 15:20:27;;;;;;;5.22;1.77;;;;;;;12.83;67.71;100994.03;1660489;86;21213;-77
2022/10/05 15:23:46;;;;;;;3.95;2.77;;;;;;;12.76;68.21;100998.00;1652356;86;21183;-78
2022/10/05 15:27:07;;;;;;;8.13;3.20;;;;;;;12.67;68.73;101002.63;1646060;86;21201;-78
2022/10/05 15:30:21;;;;;;;3.30;2.08;;;;;;;12.61;69.26;101006.56;1656502;86;21241;-78
2022/10/05 15:33:52;;;;;;;4.42;2.42;;;;;;;12.51;69.77;101009.00;1663934;85;21305;-78
2022/10/05 15:37:14;;;;;;;3.85;2.98;;;;;;;12.44;70.06;101012.08;1664208;86;21229;-77
2022/10/05 15:40:42;;;;;;;6.47;2.98;;;;;;;12.35;70.70;101015.84;1664678;86;21205;-77
2022/10/05 15:44:08;;;;;;;13.10;2.80;;;;;;;12.25;71.33;101019.27;1664073;86;21818;-78
2022/10/05 15:47:18;;;;;;;5.22;2.42;;;;;;;12.13;71.99;101017.36;1662995;85;21237;-77
2022/10/05 15:50:34;;;;;;;4.00;2.35;;;;;;;12.03;72.49;101012.55;1666166;86;21236;-77
2022/10/05 15:53:48;;;;;;;5.10;2.62;;;;;;;11.93;72.94;101016.81;1666331;86;21213;-77